Time;durP1;ratioP1;P1;durP2;ratioP2;P2;SDS_P1;SDS_P2;PMS_P1;PMS_P2;Temp;Humidity;BMP_temperature;BMP_pressure;BME280_temperature;BME280_humidity;BME280_pressure;Samples;Min_cycle;Max_cycle;Signal;HPM_P1;HPM_P2
2022/01/28 00:02:47;;;;;;;17.63;11.07;;;1.50;99.90;;;;;;6325167;22;20128;-83
2022/01/28 00:05:18;;;;;;;21.83;11.73;;;1.50;99.90;;;;;;6314229;22;20478;-83
2022/01/28 00:07:44;;;;;;;16.63;11.80;;;1.50;99.90;;;;;;6314398;22;20152;-83
2022/01/28 00:10:09;;;;;;;18.83;11.73;;;1.50;99.90;;;;;;6314449;22;20186;-83
2022/01/28 00:12:41;;;;;;;17.90;11.40;;;1.70;99.90;;;;;;6314919;22;20164;-83
2022/01/28 00:15:18;;;;;;;17.30;10.60;;;2.00;99.90;;;;;;6312793;22;20584;-83
2022/01/28 00:18:18;;;;;;;16.23;9.47;;;1.50;99.90;;;;;;6311932;22;20179;-83
2022/01/28 00:39:25;;;;;;;18.63;10.90;;;1.70;99.90;;;;;;6325421;22;20553;-83
2022/01/28 00:41:51;;;;;;;17.07;11.23;;;1.60;99.90;;;;;;6315577;22;20174;-83
2022/01/28 00:44:18;;;;;;;14.87;9.63;;;1.60;99.90;;;;;;6313864;22;20607;-83
2022/01/28 00:46:43;;;;;;;15.40;9.80;;;1.50;99.90;;;;;;6312934;22;20194;-83
2022/01/28 00:49:09;;;;;;;18.67;11.03;;;1.60;99.90;;;;;;6312233;22;20151;-83
2022/01/28 00:51:35;;;;;;;18.47;10.10;;;1.60;99.90;;;;;;6314032;22;20159;-83
2022/01/28 00:54:01;;;;;;;16.20;9.80;;;1.70;99.90;;;;;;6313534;22;20155;-83
2022/01/28 00:56:29;;;;;;;18.23;11.53;;;1.60;99.90;;;;;;6316239;22;20611;-83
2022/01/28 00:58:55;;;;;;;20.60;12.37;;;1.50;99.90;;;;;;6315965;22;20152;-83
2022/01/28 01:01:21;;;;;;;19.47;11.53;;;1.50;99.90;;;;;;6330144;22;20181;-83
2022/01/28 01:03:47;;;;;;;14.40;10.40;;;1.50;99.90;;;;;;6331010;22;20159;-84
2022/01/28 01:06:13;;;;;;;16.00;10.50;;;1.60;99.90;;;;;;6330959;22;20156;-84
2022/01/28 01:08:41;;;;;;;22.43;14.00;;;1.60;99.90;;;;;;6314262;22;20148;-83
2022/01/28 01:11:07;;;;;;;22.17;12.10;;;1.50;99.90;;;;;;6312450;22;20187;-83
2022/01/28 01:13:39;;;;;;;17.87;11.33;;;1.80;99.90;;;;;;6311610;22;20148;-83
2022/01/28 01:16:06;;;;;;;19.60;11.80;;;1.50;99.90;;;;;;6312945;22;20124;-83
2022/01/28 01:18:45;;;;;;;19.30;11.27;;;1.50;99.90;;;;;;6284828;22;20564;-83
2022/01/28 01:21:30;;;;;;;20.43;12.13;;;1.90;99.90;;;;;;6312388;22;20155;-83
2022/01/28 01:23:59;;;;;;;19.63;10.53;;;1.90;99.90;;;;;;6312400;22;20135;-83
2022/01/28 01:26:43;;;;;;;13.67;9.90;;;1.70;99.90;;;;;;6312376;22;20146;-83
2022/01/28 01:29:17;;;;;;;16.67;10.57;;;2.10;99.90;;;;;;6284850;22;20147;-83
2022/01/28 01:31:43;;;;;;;15.57;10.00;;;1.70;99.90;;;;;;6311202;22;20167;-83
2022/01/28 01:36:45;;;;;;;16.60;10.93;;;1.80;99.90;;;;;;6322183;22;20558;-83
2022/01/28 01:39:23;;;;;;;15.63;10.17;;;1.30;99.90;;;;;;6284363;22;20147;-83
2022/01/28 01:42:03;;;;;;;16.70;10.40;;;1.90;99.90;;;;;;6312420;22;20160;-83
2022/01/28 01:52:53;;;;;;;18.13;12.20;;;1.50;99.90;;;;;;6313842;22;20190;-84
2022/01/28 01:55:19;;;;;;;15.70;10.97;;;1.50;99.90;;;;;;6286196;22;20605;-83
2022/01/28 01:57:45;;;;;;;19.77;11.30;;;1.50;99.90;;;;;;6313504;22;20167;-83
2022/01/28 02:00:13;;;;;;;15.20;10.83;;;1.50;99.90;;;;;;6286613;22;20150;-83
2022/01/28 02:02:39;;;;;;;18.63;11.77;;;1.50;99.90;;;;;;6313697;22;20170;-83
2022/01/28 02:05:05;;;;;;;15.47;11.03;;;1.50;99.90;;;;;;6285840;22;20598;-84
2022/01/28 02:07:31;;;;;;;16.10;10.47;;;1.50;99.90;;;;;;6314169;22;20253;-83
2022/01/28 02:09:57;;;;;;;15.90;10.47;;;1.50;99.90;;;;;;6286031;22;20151;-84
2022/01/28 02:12:23;;;;;;;16.10;11.33;;;1.60;99.90;;;;;;6290011;22;20188;-84
2022/01/28 02:14:49;;;;;;;16.27;10.20;;;1.60;99.90;;;;;;6255589;22;20240;-84
2022/01/28 02:17:15;;;;;;;14.03;9.67;;;1.50;99.90;;;;;;6282533;22;20176;-83
2022/01/28 02:19:40;;;;;;;15.47;9.87;;;1.50;99.90;;;;;;6282754;22;20214;-83
2022/01/28 02:22:06;;;;;;;16.47;10.87;;;1.60;99.90;;;;;;6282371;22;20172;-84
2022/01/28 02:24:42;;;;;;;16.07;10.40;;;1.50;99.90;;;;;;6283028;22;20144;-83
2022/01/28 02:27:09;;;;;;;22.30;11.80;;;1.40;99.90;;;;;;6283668;22;20470;-83
2022/01/28 02:29:36;;;;;;;19.47;11.80;;;1.40;99.90;;;;;;6257089;22;20160;-83
2022/01/28 02:32:06;;;;;;;17.30;11.50;;;1.40;99.90;;;;;;6256478;22;20226;-83
2022/01/28 02:34:33;;;;;;;18.17;11.20;;;1.40;99.90;;;;;;6256752;22;20153;-83
2022/01/28 02:36:59;;;;;;;20.57;11.33;;;1.50;99.90;;;;;;6255670;22;20189;-86
2022/01/28 02:39:25;;;;;;;18.57;11.37;;;1.50;99.90;;;;;;6252884;22;20153;-83
2022/01/28 02:41:57;;;;;;;18.00;10.83;;;1.50;99.90;;;;;;6255840;22;20668;-83
2022/01/28 02:44:57;;;;;;;16.27;10.73;;;1.50;99.90;;;;;;6252125;22;20150;-83
2022/01/28 02:47:27;;;;;;;12.63;9.53;;;1.60;99.90;;;;;;6274600;22;20613;-83
2022/01/28 02:49:53;;;;;;;17.90;11.47;;;1.60;99.90;;;;;;6280926;22;20164;-83
2022/01/28 02:52:23;;;;;;;19.57;11.93;;;1.60;99.90;;;;;;6285290;22;20171;-83
2022/01/28 02:54:50;;;;;;;17.20;11.17;;;1.60;99.90;;;;;;6264531;22;20152;-84
2022/01/28 02:57:22;;;;;;;21.03;11.90;;;1.60;99.90;;;;;;6286042;22;20172;-85
2022/01/28 02:59:48;;;;;;;17.60;10.57;;;1.60;99.90;;;;;;6254947;22;20137;-84
2022/01/28 03:02:14;;;;;;;20.17;12.33;;;1.60;99.90;;;;;;6255518;22;20667;-84
2022/01/28 03:07:25;;;;;;;25.63;14.20;;;1.50;99.90;;;;;;6281904;22;20165;-86
2022/01/28 03:10:14;;;;;;;17.73;11.70;;;1.50;99.90;;;;;;6281912;22;20231;-84
2022/01/28 03:12:59;;;;;;;19.63;11.53;;;1.90;99.90;;;;;;6281714;22;20537;-83
2022/01/28 03:15:23;;;;;;;20.20;11.70;;;1.60;99.90;;;;;;6281788;22;20157;-83
2022/01/28 03:18:05;;;;;;;19.37;12.07;;;1.60;99.90;;;;;;6254438;22;20516;-84
2022/01/28 03:20:39;;;;;;;17.03;11.07;;;1.60;99.90;;;;;;6281010;22;20153;-85
2022/01/28 03:23:04;;;;;;;13.03;10.20;;;1.60;99.90;;;;;;6281372;22;20201;-85
2022/01/28 03:25:30;;;;;;;14.63;10.67;;;1.60;99.90;;;;;;6281567;22;20141;-84
2022/01/28 03:27:59;;;;;;;19.87;12.30;;;1.70;99.90;;;;;;6281835;22;20152;-84
2022/01/28 03:30:24;;;;;;;13.33;10.00;;;1.60;99.90;;;;;;6254805;22;20167;-83
2022/01/28 03:32:50;;;;;;;21.03;13.07;;;1.60;99.90;;;;;;6282866;22;20169;-84
2022/01/28 03:35:18;;;;;;;22.87;13.53;;;2.10;99.90;;;;;;6281339;22;20148;-85
2022/01/28 03:37:44;;;;;;;21.63;13.07;;;1.50;99.90;;;;;;6281707;22;20251;-84
2022/01/28 03:40:10;;;;;;;20.67;12.73;;;1.50;99.90;;;;;;6255895;22;20217;-84
2022/01/28 03:42:37;;;;;;;22.53;13.10;;;1.50;99.90;;;;;;6283457;22;20160;-83
2022/01/28 03:45:05;;;;;;;17.33;11.50;;;1.60;99.90;;;;;;6282600;22;20144;-84
2022/01/28 03:47:30;;;;;;;21.50;13.50;;;1.60;99.90;;;;;;6255499;22;20614;-84
2022/01/28 03:49:56;;;;;;;21.50;12.87;;;1.60;99.90;;;;;;6282319;22;20175;-84
2022/01/28 03:52:22;;;;;;;18.33;11.30;;;1.60;99.90;;;;;;6255445;22;20181;-83
2022/01/28 03:54:48;;;;;;;19.70;12.53;;;1.60;99.90;;;;;;6283025;22;20145;-83
2022/01/28 03:57:14;;;;;;;16.27;11.93;;;1.60;99.90;;;;;;6283046;22;20189;-83
2022/01/28 03:59:39;;;;;;;15.47;11.53;;;1.60;99.90;;;;;;6284007;22;20160;-83
2022/01/28 04:02:06;;;;;;;15.63;10.93;;;1.60;99.90;;;;;;6282838;22;20187;-83
2022/01/28 04:12:49;;;;;;;13.73;10.23;;;1.70;99.90;;;;;;6282786;22;20582;-83
2022/01/28 04:17:44;;;;;;;13.00;9.43;;;1.60;99.90;;;;;;6282563;22;20219;-83
2022/01/28 04:20:10;;;;;;;12.93;9.70;;;1.60;99.90;;;;;;6254467;22;20149;-84
2022/01/28 04:22:35;;;;;;;15.50;9.97;;;1.60;99.90;;;;;;6254898;22;20572;-83
2022/01/28 04:25:01;;;;;;;16.33;10.73;;;1.50;99.90;;;;;;6282691;22;20149;-83
2022/01/28 04:27:27;;;;;;;16.67;10.40;;;1.50;99.90;;;;;;6282243;22;20156;-83
2022/01/28 04:29:52;;;;;;;16.60;10.83;;;1.50;99.90;;;;;;6281939;22;20176;-84
2022/01/28 04:32:19;;;;;;;18.23;10.17;;;1.50;99.90;;;;;;6254825;22;20569;-83
2022/01/28 04:34:46;;;;;;;14.40;10.60;;;1.50;99.90;;;;;;6281686;22;20167;-83
2022/01/28 04:47:15;;;;;;;17.10;11.33;;;1.90;99.90;;;;;;6282368;22;20233;-83
2022/01/28 04:55:23;;;;;;;13.40;9.17;;;1.60;99.90;;;;;;6281265;22;20143;-83
2022/01/28 04:58:11;;;;;;;16.57;10.27;;;1.70;99.90;;;;;;6253760;22;20179;-83
2022/01/28 05:03:41;;;;;;;13.23;9.73;;;1.50;99.90;;;;;;6281228;22;20140;-83
2022/01/28 05:25:10;;;;;;;11.90;9.20;;;1.60;99.90;;;;;;6282596;22;20489;-83
2022/01/28 05:27:13;;;;;;;13.20;10.00;;;1.60;99.90;;;;;;6278853;22;20153;-83
2022/01/28 05:29:41;;;;;;;13.07;9.60;;;1.50;99.90;;;;;;6256362;22;20157;-83
2022/01/28 05:32:08;;;;;;;12.87;9.87;;;1.50;99.90;;;;;;6282553;22;20170;-83
2022/01/28 05:34:33;;;;;;;12.60;9.47;;;1.50;99.90;;;;;;6255884;22;20652;-83
2022/01/28 05:36:59;;;;;;;16.73;10.17;;;1.50;99.90;;;;;;6256085;22;20180;-83
2022/01/28 05:39:25;;;;;;;16.30;10.40;;;1.50;99.90;;;;;;6255348;22;20153;-83
2022/01/28 05:41:51;;;;;;;14.30;10.53;;;1.60;99.90;;;;;;6250402;22;20174;-84
2022/01/28 05:44:21;;;;;;;15.90;11.07;;;1.50;99.90;;;;;;6281143;22;20241;-82
2022/01/28 05:46:48;;;;;;;15.63;11.00;;;1.50;99.90;;;;;;6252873;22;20144;-83
2022/01/28 05:49:14;;;;;;;13.20;10.73;;;1.80;99.90;;;;;;6279501;22;20150;-84
2022/01/28 05:51:43;;;;;;;13.47;10.33;;;1.50;99.90;;;;;;6279607;22;20167;-83
2022/01/28 05:54:10;;;;;;;14.43;10.50;;;1.50;99.90;;;;;;6280041;22;20657;-83
2022/01/28 05:56:36;;;;;;;15.13;10.23;;;1.50;99.90;;;;;;6281427;22;20146;-83
2022/01/28 05:59:02;;;;;;;16.50;9.80;;;1.80;99.90;;;;;;6254900;22;20234;-82
2022/01/28 06:01:28;;;;;;;12.10;9.70;;;1.50;99.90;;;;;;6254866;22;20165;-83
2022/01/28 06:03:53;;;;;;;11.67;9.27;;;1.60;99.90;;;;;;6282466;22;20142;-80
2022/01/28 06:06:20;;;;;;;14.13;10.27;;;1.90;99.90;;;;;;6281499;22;20605;-82
2022/01/28 06:08:56;;;;;;;13.87;9.17;;;2.10;99.90;;;;;;6282390;22;20145;-82
2022/01/28 06:11:23;;;;;;;14.07;10.10;;;1.50;99.90;;;;;;6263898;22;20548;-83
2022/01/28 06:13:49;;;;;;;14.73;9.83;;;1.50;99.90;;;;;;6312525;22;20205;-83
2022/01/28 06:16:16;;;;;;;12.83;9.53;;;1.60;99.90;;;;;;6283834;22;20157;-82
2022/01/28 06:18:42;;;;;;;14.73;9.67;;;1.50;99.90;;;;;;6283478;22;20176;-83
2022/01/28 06:21:08;;;;;;;13.13;9.53;;;1.50;99.90;;;;;;6282630;22;20172;-82
2022/01/28 06:23:34;;;;;;;12.70;9.20;;;1.50;99.90;;;;;;6310286;22;20697;-82
2022/01/28 06:26:00;;;;;;;12.67;9.57;;;1.70;99.90;;;;;;6309081;22;20143;-84
2022/01/28 06:28:26;;;;;;;14.17;9.93;;;1.80;99.90;;;;;;6310289;22;20631;-84
2022/01/28 06:30:52;;;;;;;12.37;9.63;;;1.60;99.90;;;;;;6258061;22;20160;-81
2022/01/28 06:33:18;;;;;;;13.37;9.70;;;1.60;99.90;;;;;;6309472;22;20175;-83
2022/01/28 06:35:45;;;;;;;12.77;10.50;;;1.50;99.90;;;;;;6282992;22;20152;-83
2022/01/28 06:38:11;;;;;;;16.37;11.43;;;1.50;99.90;;;;;;6310403;22;20176;-84
2022/01/28 06:40:37;;;;;;;13.80;9.93;;;1.50;99.90;;;;;;6310275;22;20470;-83
2022/01/28 06:43:03;;;;;;;16.90;11.30;;;1.50;99.90;;;;;;6311020;22;20166;-82
2022/01/28 06:45:29;;;;;;;18.90;13.07;;;1.50;99.90;;;;;;6283730;22;20183;-83
2022/01/28 06:47:55;;;;;;;18.37;11.30;;;1.50;99.90;;;;;;6283619;22;20187;-82
2022/01/28 06:50:20;;;;;;;13.67;11.00;;;1.50;99.90;;;;;;6311389;22;20155;-83
2022/01/28 06:52:46;;;;;;;16.23;11.27;;;1.50;99.90;;;;;;6258112;22;20176;-83
2022/01/28 06:55:14;;;;;;;19.80;12.23;;;1.60;99.90;;;;;;6284096;22;20151;-84
2022/01/28 06:57:40;;;;;;;15.93;11.70;;;1.50;99.90;;;;;;6311602;22;20175;-84
2022/01/28 07:00:08;;;;;;;15.90;11.37;;;1.60;99.90;;;;;;6311626;22;20148;-83
2022/01/28 07:02:34;;;;;;;13.77;9.93;;;1.60;99.90;;;;;;6310664;22;20166;-83
2022/01/28 07:04:59;;;;;;;14.60;10.33;;;2.20;99.90;;;;;;6310599;22;20144;-83
2022/01/28 07:07:26;;;;;;;14.07;11.03;;;1.60;99.90;;;;;;6310597;22;20529;-83
2022/01/28 07:09:52;;;;;;;18.10;12.00;;;1.60;99.90;;;;;;6284108;22;20231;-82
2022/01/28 07:12:19;;;;;;;14.93;11.30;;;1.60;99.90;;;;;;6287953;22;20195;-83
2022/01/28 07:14:45;;;;;;;14.93;10.53;;;1.70;99.90;;;;;;6253189;22;20191;-83
2022/01/28 07:17:11;;;;;;;16.23;11.27;;;1.60;99.90;;;;;;6279687;22;20168;-83
2022/01/28 07:19:37;;;;;;;17.73;12.10;;;1.60;99.90;;;;;;6251674;22;20155;-84
2022/01/28 07:22:03;;;;;;;15.70;11.37;;;1.60;99.90;;;;;;6280278;22;20169;-83
2022/01/28 07:24:29;;;;;;;16.93;12.13;;;1.50;99.90;;;;;;6278982;22;20613;-83
2022/01/28 07:26:55;;;;;;;17.90;11.73;;;1.50;99.90;;;;;;6281000;22;20164;-83
2022/01/28 07:29:22;;;;;;;18.87;12.03;;;1.80;99.90;;;;;;6280327;22;20149;-84
2022/01/28 07:31:48;;;;;;;16.57;12.00;;;1.50;99.90;;;;;;6280405;22;20257;-83
2022/01/28 07:34:14;;;;;;;18.47;11.70;;;1.50;99.90;;;;;;6256586;22;20501;-83
2022/01/28 07:36:40;;;;;;;17.33;11.73;;;1.50;99.90;;;;;;6282769;22;20639;-82
2022/01/28 07:39:07;;;;;;;17.27;13.03;;;1.50;99.90;;;;;;6282913;22;20602;-82
2022/01/28 07:41:36;;;;;;;16.07;11.83;;;1.60;99.90;;;;;;6256088;22;20229;-83
2022/01/28 07:44:03;;;;;;;19.73;12.63;;;1.50;99.90;;;;;;6255272;22;20149;-83
2022/01/28 07:46:28;;;;;;;18.23;12.13;;;1.50;99.90;;;;;;6282454;22;20160;-83
2022/01/28 07:48:57;;;;;;;17.47;11.93;;;1.50;99.90;;;;;;6282260;22;20149;-81
2022/01/28 07:51:23;;;;;;;16.83;11.97;;;1.60;99.90;;;;;;6282811;22;20161;-82
2022/01/28 07:53:48;;;;;;;16.13;11.80;;;1.60;99.90;;;;;;6255191;22;20175;-83
2022/01/28 07:56:14;;;;;;;17.83;11.70;;;1.70;99.90;;;;;;6282499;22;20150;-83
2022/01/28 07:58:41;;;;;;;16.00;10.73;;;1.60;99.90;;;;;;6256172;22;20176;-83
2022/01/28 08:01:07;;;;;;;15.47;10.97;;;1.70;99.90;;;;;;6281681;22;20201;-83
2022/01/28 08:03:32;;;;;;;14.63;10.73;;;1.80;99.90;;;;;;6281437;22;20147;-82
2022/01/28 08:05:58;;;;;;;16.67;10.33;;;1.80;99.90;;;;;;6254853;22;20150;-84
2022/01/28 08:08:24;;;;;;;14.80;10.70;;;1.80;99.90;;;;;;6279185;22;20204;-83
2022/01/28 08:10:49;;;;;;;14.60;9.80;;;1.90;99.90;;;;;;6251630;22;20152;-83
2022/01/28 08:13:15;;;;;;;15.60;10.10;;;2.30;99.90;;;;;;6279207;22;20136;-83
2022/01/28 08:15:44;;;;;;;15.37;10.73;;;1.90;99.90;;;;;;6278956;22;20600;-85
2022/01/28 08:18:10;;;;;;;15.07;10.67;;;1.90;99.90;;;;;;6276034;22;20228;-85
2022/01/28 08:20:39;;;;;;;12.93;9.93;;;1.90;99.90;;;;;;6279283;22;20516;-84
2022/01/28 08:23:16;;;;;;;13.90;10.70;;;1.90;99.90;;;;;;6283588;22;20157;-83
2022/01/28 08:25:42;;;;;;;16.57;11.23;;;1.90;99.90;;;;;;6263285;22;20156;-83
2022/01/28 08:28:08;;;;;;;20.20;12.23;;;1.90;99.90;;;;;;6283408;22;20146;-85
2022/01/28 08:30:37;;;;;;;18.43;12.37;;;1.90;99.90;;;;;;6281356;22;20153;-84
2022/01/28 08:33:04;;;;;;;16.43;11.67;;;1.90;99.90;;;;;;6280747;22;20550;-84
2022/01/28 08:35:33;;;;;;;16.70;11.77;;;2.00;99.90;;;;;;6279193;22;20148;-84
2022/01/28 08:37:59;;;;;;;17.53;11.37;;;2.00;99.90;;;;;;6282298;22;20196;-82
2022/01/28 08:40:27;;;;;;;18.67;12.63;;;2.00;99.90;;;;;;6255276;22;20154;-83
2022/01/28 08:42:53;;;;;;;17.27;11.27;;;2.10;99.90;;;;;;6282502;22;20188;-83
2022/01/28 08:45:19;;;;;;;14.10;11.37;;;2.00;99.90;;;;;;6280606;22;20148;-83
2022/01/28 08:47:44;;;;;;;16.87;11.80;;;2.10;99.90;;;;;;6279103;22;20157;-83
2022/01/28 08:50:10;;;;;;;13.77;10.47;;;2.00;99.90;;;;;;6251749;22;20157;-83
2022/01/28 08:52:36;;;;;;;14.93;11.30;;;2.10;99.90;;;;;;6279953;22;20181;-84
2022/01/28 08:55:04;;;;;;;12.40;10.23;;;2.20;99.90;;;;;;6281069;22;20659;-85
2022/01/28 08:57:29;;;;;;;12.47;9.90;;;2.20;99.90;;;;;;6282558;22;20232;-82
2022/01/28 08:59:58;;;;;;;14.70;10.70;;;2.30;99.90;;;;;;6255886;22;20145;-84
2022/01/28 09:02:24;;;;;;;14.90;10.07;;;2.20;99.90;;;;;;6255563;22;20513;-84
2022/01/28 09:04:49;;;;;;;12.60;9.87;;;2.20;99.90;;;;;;6251736;22;20231;-84
2022/01/28 09:07:18;;;;;;;13.93;10.63;;;2.20;99.90;;;;;;6253854;22;20212;-83
2022/01/28 09:09:50;;;;;;;15.93;10.87;;;2.20;99.90;;;;;;6254785;22;20184;-84
2022/01/28 09:15:05;;;;;;;14.77;10.83;;;2.30;99.90;;;;;;6265816;22;20201;-83
2022/01/28 09:17:31;;;;;;;15.10;11.33;;;2.40;99.90;;;;;;6281464;22;20482;-84
2022/01/28 09:19:57;;;;;;;15.67;10.83;;;2.40;99.90;;;;;;6253463;22;20149;-84
2022/01/28 09:22:23;;;;;;;12.70;10.70;;;2.50;99.90;;;;;;6282095;22;20176;-82
2022/01/28 09:24:48;;;;;;;15.37;11.10;;;2.60;99.90;;;;;;6255235;22;20179;-83
2022/01/28 09:27:14;;;;;;;15.17;11.30;;;2.80;99.90;;;;;;6282878;22;20601;-82
2022/01/28 09:29:40;;;;;;;12.53;10.60;;;2.80;99.90;;;;;;6282394;22;20154;-85
2022/01/28 09:32:05;;;;;;;11.93;10.03;;;2.80;99.90;;;;;;6281576;22;20614;-84
2022/01/28 09:34:31;;;;;;;12.90;10.40;;;2.80;99.90;;;;;;6281032;22;20636;-83
2022/01/28 09:36:57;;;;;;;9.73;8.30;;;3.00;99.90;;;;;;6281172;22;20597;-83
2022/01/28 09:39:24;;;;;;;11.47;9.60;;;3.00;99.90;;;;;;6281392;22;20220;-83
2022/01/28 09:41:51;;;;;;;13.17;10.53;;;3.10;99.90;;;;;;6253896;22;20172;-83
2022/01/28 09:44:20;;;;;;;12.93;9.67;;;2.80;99.90;;;;;;6253182;22;20149;-84
2022/01/28 09:46:46;;;;;;;13.43;10.00;;;2.80;99.90;;;;;;6281024;22;20214;-84
2022/01/28 09:49:12;;;;;;;13.07;10.67;;;2.90;99.90;;;;;;6281654;22;20157;-88
2022/01/28 09:51:38;;;;;;;14.00;11.23;;;3.10;99.90;;;;;;6281178;22;20182;-84
2022/01/28 09:54:07;;;;;;;13.10;9.87;;;2.90;99.90;;;;;;6253461;22;20164;-84
2022/01/28 09:56:33;;;;;;;14.17;11.30;;;3.00;99.90;;;;;;6280469;22;20148;-85
2022/01/28 09:58:59;;;;;;;12.87;10.60;;;3.10;99.90;;;;;;6253975;22;20176;-83
2022/01/28 10:01:26;;;;;;;13.40;10.60;;;3.20;99.90;;;;;;6282226;22;20180;-82
2022/01/28 10:04:05;;;;;;;12.73;10.03;;;3.20;99.90;;;;;;6282137;22;20202;-85
2022/01/28 10:06:32;;;;;;;10.90;9.77;;;3.30;99.90;;;;;;6254396;22;20482;-83
2022/01/28 10:09:01;;;;;;;13.47;9.93;;;3.20;99.90;;;;;;6282078;22;20155;-84
2022/01/28 10:11:27;;;;;;;15.53;11.10;;;3.30;99.90;;;;;;6282509;22;20196;-83
2022/01/28 10:13:56;;;;;;;11.10;9.43;;;3.30;99.90;;;;;;6282700;22;20144;-83
2022/01/28 10:16:27;;;;;;;11.03;9.03;;;3.40;99.90;;;;;;6253840;22;20164;-84
2022/01/28 10:19:00;;;;;;;10.27;8.63;;;3.50;99.90;;;;;;6278961;22;20172;-85
2022/01/28 10:21:43;;;;;;;11.60;9.47;;;3.60;99.90;;;;;;6279968;22;20173;-83
2022/01/28 10:24:17;;;;;;;11.13;9.53;;;3.50;99.90;;;;;;6281294;22;20148;-84
2022/01/28 10:26:56;;;;;;;12.33;9.70;;;3.50;99.90;;;;;;6281524;22;20569;-84
2022/01/28 10:29:31;;;;;;;11.03;9.90;;;3.50;99.90;;;;;;6254727;22;20495;-85
2022/01/28 10:31:57;;;;;;;10.70;9.43;;;3.50;99.90;;;;;;6254400;22;20251;-84
2022/01/28 10:34:23;;;;;;;10.97;9.83;;;3.40;99.90;;;;;;6281329;22;20201;-84
2022/01/28 10:36:51;;;;;;;11.17;9.13;;;3.60;99.90;;;;;;6281420;22;20583;-84
2022/01/28 10:39:19;;;;;;;10.47;8.43;;;3.60;99.90;;;;;;6281951;22;20145;-83
2022/01/28 10:41:50;;;;;;;10.03;8.73;;;3.50;99.90;;;;;;6253781;22;20185;-84
2022/01/28 10:44:16;;;;;;;12.10;9.00;;;3.40;99.90;;;;;;6280742;22;20141;-84
2022/01/28 10:46:51;;;;;;;12.10;9.90;;;3.30;99.90;;;;;;6281344;22;20148;-84
2022/01/28 10:49:16;;;;;;;12.00;9.27;;;3.30;99.90;;;;;;6281915;22;20144;-84
2022/01/28 10:51:45;;;;;;;10.80;9.43;;;3.40;99.90;;;;;;6281153;22;20177;-84
2022/01/28 10:54:29;;;;;;;10.10;8.87;;;3.50;99.90;;;;;;6254133;22;20160;-84
2022/01/28 10:56:59;;;;;;;11.17;9.63;;;3.60;99.90;;;;;;6281957;22;20142;-86
2022/01/28 10:59:35;;;;;;;11.90;10.43;;;3.60;99.90;;;;;;6254496;22;20489;-84
2022/01/28 11:02:02;;;;;;;10.43;8.60;;;3.70;99.90;;;;;;6255477;22;20237;-84
2022/01/28 11:04:28;;;;;;;10.33;9.00;;;3.70;99.90;;;;;;6281140;22;20141;-82
2022/01/28 11:06:58;;;;;;;10.93;9.03;;;3.80;99.90;;;;;;6280481;22;20148;-84
2022/01/28 11:09:30;;;;;;;10.33;9.20;;;3.80;99.90;;;;;;6280534;22;20237;-84
2022/01/28 11:11:56;;;;;;;10.50;9.30;;;3.70;99.90;;;;;;6272155;22;20275;-84
2022/01/28 11:14:25;;;;;;;11.33;8.63;;;3.70;99.90;;;;;;6310947;22;20585;-84
2022/01/28 11:16:51;;;;;;;10.50;8.67;;;3.90;99.90;;;;;;6311778;22;20465;-84
2022/01/28 11:19:22;;;;;;;10.17;8.43;;;4.60;99.90;;;;;;6283331;22;20160;-84
2022/01/28 11:22:15;;;;;;;12.30;8.60;;;4.00;99.90;;;;;;6284572;22;20317;-84
2022/01/28 11:25:05;;;;;;;9.07;8.17;;;4.10;99.90;;;;;;6283975;22;20145;-83
2022/01/28 11:27:34;;;;;;;9.83;8.50;;;4.20;99.90;;;;;;6312128;22;20453;-84
2022/01/28 11:30:25;;;;;;;10.13;8.40;;;4.20;99.90;;;;;;6311325;22;20154;-85
2022/01/28 11:33:07;;;;;;;11.87;9.17;;;4.20;99.90;;;;;;6282777;22;20276;-84
2022/01/28 11:35:40;;;;;;;9.77;8.13;;;4.10;99.90;;;;;;6310870;22;20181;-83
2022/01/28 11:38:24;;;;;;;9.97;8.37;;;4.20;99.90;;;;;;6283823;22;20179;-84
2022/01/28 11:40:56;;;;;;;9.80;8.10;;;4.30;99.90;;;;;;6311108;22;20582;-84
2022/01/28 11:43:25;;;;;;;10.87;8.17;;;4.30;99.90;;;;;;6283774;22;20151;-87
2022/01/28 11:46:17;;;;;;;8.60;7.60;;;4.30;99.90;;;;;;6282803;22;20152;-85
2022/01/28 11:48:51;;;;;;;9.27;7.43;;;4.40;99.90;;;;;;6309653;22;20259;-83
2022/01/28 11:51:41;;;;;;;8.27;7.43;;;4.40;99.90;;;;;;6309240;22;20292;-84
2022/01/28 11:54:13;;;;;;;9.77;7.80;;;4.30;99.90;;;;;;6310013;22;20132;-82
2022/01/28 11:57:01;;;;;;;8.93;8.00;;;4.60;99.90;;;;;;6283637;22;20144;-84
2022/01/28 11:59:32;;;;;;;10.57;7.30;;;4.40;99.90;;;;;;6281872;22;20973;-85
2022/01/28 12:01:58;;;;;;;8.67;7.23;;;4.40;99.90;;;;;;6310793;22;20608;-84
2022/01/28 12:04:27;;;;;;;12.13;8.33;;;4.40;99.90;;;;;;6310979;22;20205;-84
2022/01/28 12:07:06;;;;;;;10.50;8.47;;;4.40;99.90;;;;;;6284634;22;20155;-83
2022/01/28 12:09:34;;;;;;;11.67;9.07;;;4.60;99.90;;;;;;6312171;22;20532;-82
2022/01/28 12:12:00;;;;;;;10.13;9.07;;;4.70;99.90;;;;;;6284130;22;20334;-83
2022/01/28 12:15:01;;;;;;;8.33;7.53;;;4.80;99.90;;;;;;6311504;22;20146;-82
2022/01/28 12:17:33;;;;;;;7.70;7.00;;;4.80;99.90;;;;;;6312144;22;20168;-83
2022/01/28 12:20:14;;;;;;;7.37;6.37;;;5.00;99.90;;;;;;6283347;22;20150;-83
2022/01/28 12:23:02;;;;;;;7.43;6.73;;;4.80;99.90;;;;;;6310777;22;20204;-84
2022/01/28 12:25:36;;;;;;;6.37;5.50;;;4.90;99.90;;;;;;6310218;22;20147;-82
2022/01/28 12:28:18;;;;;;;5.23;4.23;;;5.10;99.90;;;;;;6283763;22;20152;-83
2022/01/28 12:30:49;;;;;;;7.90;5.80;;;5.10;99.90;;;;;;6283897;22;20153;-83
2022/01/28 12:33:21;;;;;;;6.87;5.20;;;5.10;99.90;;;;;;6312547;22;20146;-83
2022/01/28 12:35:50;;;;;;;7.50;5.53;;;5.20;99.90;;;;;;6283568;22;20144;-83
2022/01/28 12:38:20;;;;;;;5.37;4.47;;;5.20;99.90;;;;;;6283206;22;20176;-84
2022/01/28 12:40:49;;;;;;;5.53;5.03;;;5.30;99.90;;;;;;6306249;22;20131;-83
2022/01/28 12:43:24;;;;;;;6.43;5.00;;;5.30;99.90;;;;;;6283272;22;20144;-83
2022/01/28 12:46:09;;;;;;;6.10;5.03;;;5.80;99.90;;;;;;6310569;22;20200;-83
2022/01/28 12:48:36;;;;;;;5.03;4.50;;;5.40;99.90;;;;;;6310628;22;20134;-82
2022/01/28 12:51:05;;;;;;;5.30;4.40;;;5.40;99.90;;;;;;6282171;22;20183;-83
2022/01/28 12:53:35;;;;;;;4.97;4.27;;;5.40;99.90;;;;;;6310323;22;20154;-83
2022/01/28 12:56:02;;;;;;;6.30;5.47;;;5.50;99.90;;;;;;6309954;22;20713;-83
2022/01/28 12:58:50;;;;;;;8.10;6.13;;;5.50;99.90;;;;;;6310879;22;20202;-83
2022/01/28 13:01:19;;;;;;;6.67;6.03;;;5.50;99.90;;;;;;6283051;22;20629;-83
2022/01/28 13:03:54;;;;;;;6.17;5.57;;;5.50;99.90;;;;;;6310045;22;20152;-84
2022/01/28 13:06:28;;;;;;;6.73;6.03;;;5.40;99.90;;;;;;6311694;22;20131;-83
2022/01/28 13:08:55;;;;;;;9.17;6.13;;;5.40;99.90;;;;;;6310715;22;20130;-86
2022/01/28 13:11:23;;;;;;;11.17;7.87;;;5.50;99.90;;;;;;6300380;22;20193;-83
2022/01/28 13:13:56;;;;;;;10.77;6.50;;;5.50;99.90;;;;;;6280148;22;20155;-82
2022/01/28 13:16:33;;;;;;;15.70;9.03;;;5.50;99.90;;;;;;6252760;22;20202;-83
2022/01/28 13:19:00;;;;;;;15.20;7.63;;;5.40;99.90;;;;;;6252197;22;20255;-83
2022/01/28 13:21:26;;;;;;;4.50;3.57;;;5.40;99.90;;;;;;6278979;22;20171;-84
2022/01/28 13:24:20;;;;;;;5.67;4.13;;;5.30;99.90;;;;;;6279799;22;20584;-83
2022/01/28 13:27:03;;;;;;;9.73;4.33;;;5.30;99.90;;;;;;6280097;22;20198;-86
2022/01/28 13:29:51;;;;;;;5.90;4.57;;;5.30;99.90;;;;;;6280357;22;20139;-83
2022/01/28 13:32:20;;;;;;;4.93;3.63;;;5.20;99.90;;;;;;6279892;22;20633;-84
2022/01/28 13:34:48;;;;;;;2.40;2.20;;;5.20;99.90;;;;;;6255022;22;20533;-82
2022/01/28 13:37:34;;;;;;;2.13;1.90;;;5.20;99.90;;;;;;6252777;22;20215;-84
2022/01/28 13:40:01;;;;;;;2.83;2.10;;;5.20;99.90;;;;;;6250923;22;20147;-83
2022/01/28 13:42:27;;;;;;;2.90;2.00;;;5.10;99.90;;;;;;6253541;22;20179;-82
2022/01/28 13:44:53;;;;;;;2.60;1.83;;;5.20;99.90;;;;;;6282035;22;20175;-84
2022/01/28 13:47:20;;;;;;;3.97;1.90;;;5.20;99.90;;;;;;6282165;22;20669;-83
2022/01/28 13:49:55;;;;;;;2.27;1.73;;;5.20;99.90;;;;;;6253499;22;20243;-83
2022/01/28 13:52:28;;;;;;;2.47;1.60;;;5.30;99.90;;;;;;6282212;22;20178;-82
2022/01/28 13:54:57;;;;;;;2.13;1.40;;;5.40;99.90;;;;;;6281924;22;20247;-85
2022/01/28 13:57:28;;;;;;;5.73;1.77;;;5.40;99.90;;;;;;6281886;22;20186;-83
2022/01/28 14:00:03;;;;;;;3.23;1.40;;;5.40;99.90;;;;;;6256132;22;20142;-82
2022/01/28 14:02:30;;;;;;;2.13;1.60;;;5.90;99.90;;;;;;6282397;22;20189;-82
2022/01/28 14:04:56;;;;;;;1.47;1.33;;;5.60;99.90;;;;;;6253314;22;20150;-83
2022/01/28 14:07:23;;;;;;;1.60;1.50;;;5.60;99.90;;;;;;6282175;22;20281;-82
2022/01/28 14:09:52;;;;;;;2.37;1.47;;;5.60;99.90;;;;;;6254109;22;20169;-82
2022/01/28 14:12:40;;;;;;;3.03;1.53;;;5.70;99.90;;;;;;6276172;22;20194;-82
2022/01/28 14:15:15;;;;;;;2.50;1.47;;;5.70;99.90;;;;;;6284292;22;20180;-83
2022/01/28 14:17:42;;;;;;;2.33;1.10;;;5.70;99.90;;;;;;6286177;22;20510;-83
2022/01/28 14:20:09;;;;;;;2.23;1.47;;;5.70;99.90;;;;;;6285912;22;20154;-83